Time;durP1;ratioP1;P1;durP2;ratioP2;P2;SDS_P1;SDS_P2;PMS_P1;PMS_P2;Temp;Humidity;BMP_temperature;BMP_pressure;BME280_temperature;BME280_humidity;BME280_pressure;Samples;Min_cycle;Max_cycle;Signal;HPM_P1;HPM_P2
2022/05/20 00:01:52;;;;;;;8.20;4.00;;;;;;;12.91;47.77;100422.35;130420;1267;108767;-76
2022/05/20 00:04:59;;;;;;;9.00;3.70;;;;;;;12.93;47.79;100419.13;130535;1266;108816;-77
2022/05/20 00:08:06;;;;;;;7.60;4.00;;;;;;;12.96;47.51;100423.25;130500;1266;108888;-76
2022/05/20 00:11:11;;;;;;;5.20;3.30;;;;;;;13.01;47.63;100418.31;130454;1266;107465;-75
2022/05/20 00:14:17;;;;;;;5.40;3.60;;;;;;;13.04;47.86;100415.66;130501;1267;108686;-77
2022/05/20 00:17:22;;;;;;;5.80;3.50;;;;;;;13.05;47.70;100420.17;130436;1266;108087;-76
2022/05/20 00:20:29;;;;;;;7.40;3.60;;;;;;;13.07;47.60;100418.25;130548;1266;108662;-78
2022/05/20 00:23:35;;;;;;;5.40;3.70;;;;;;;13.07;47.70;100410.65;130398;1266;108690;-77
2022/05/20 00:26:40;;;;;;;5.90;3.10;;;;;;;13.06;47.80;100410.25;130526;1267;109074;-76
2022/05/20 00:29:46;;;;;;;6.80;3.40;;;;;;;13.05;47.71;100413.35;130562;1267;108753;-77
2022/05/20 00:32:52;;;;;;;6.40;3.40;;;;;;;13.05;47.74;100405.90;130550;1265;108513;-77
2022/05/20 00:35:58;;;;;;;4.70;3.40;;;;;;;13.03;47.77;100406.14;130431;1267;108914;-77
2022/05/20 00:39:03;;;;;;;4.60;3.00;;;;;;;12.98;47.81;100405.44;130490;1267;108922;-78
2022/05/20 00:42:15;;;;;;;5.50;3.40;;;;;;;12.94;47.92;100400.05;130556;1266;108823;-77
2022/05/20 00:45:21;;;;;;;6.60;3.30;;;;;;;12.92;47.96;100396.70;130581;1267;108831;-76
2022/05/20 00:48:28;;;;;;;6.00;2.90;;;;;;;12.90;48.13;100389.30;130548;1266;108653;-76
2022/05/20 00:51:37;;;;;;;6.40;3.20;;;;;;;12.87;48.10;100389.59;130585;1267;108709;-75
2022/05/20 00:54:46;;;;;;;6.40;3.10;;;;;;;12.85;48.15;100390.35;130358;1267;108942;-75
2022/05/20 00:57:56;;;;;;;7.20;3.30;;;;;;;12.85;48.13;100391.45;130385;1267;108777;-75
2022/05/20 01:01:03;;;;;;;6.10;2.90;;;;;;;12.81;48.48;100384.42;130532;1267;108808;-75
2022/05/20 01:04:09;;;;;;;5.40;3.40;;;;;;;12.75;48.66;100383.56;130496;1267;108613;-75
2022/05/20 01:07:16;;;;;;;5.10;3.30;;;;;;;12.70;48.77;100385.30;130375;1265;108645;-73
2022/05/20 01:10:23;;;;;;;7.10;3.00;;;;;;;12.64;48.86;100382.58;130388;1267;108820;-73
2022/05/20 01:13:31;;;;;;;6.40;3.40;;;;;;;12.61;48.72;100381.48;130452;1266;108992;-73
2022/05/20 01:16:37;;;;;;;5.80;3.40;;;;;;;12.58;48.98;100381.95;130484;1267;108823;-73
2022/05/20 01:19:46;;;;;;;4.10;3.20;;;;;;;12.53;49.12;100382.19;130563;1265;108818;-75
2022/05/20 01:23:03;;;;;;;7.60;4.00;;;;;;;12.48;49.18;100384.24;130486;1267;108676;-75
2022/05/20 01:26:08;;;;;;;7.00;3.00;;;;;;;12.45;49.41;100386.58;130429;1267;108704;-75
2022/05/20 01:29:14;;;;;;;4.70;3.20;;;;;;;12.42;49.76;100380.40;130390;1266;108971;-74
2022/05/20 01:32:19;;;;;;;4.70;2.80;;;;;;;12.39;49.64;100380.20;130542;1266;109534;-75
2022/05/20 01:35:29;;;;;;;5.80;3.00;;;;;;;12.35;49.74;100375.63;130556;1267;108883;-74
2022/05/20 01:38:34;;;;;;;6.30;3.20;;;;;;;12.30;49.80;100378.72;130551;1267;109016;-75
2022/05/20 01:41:46;;;;;;;4.50;2.90;;;;;;;12.25;50.17;100371.68;130486;1267;108783;-74
2022/05/20 01:45:02;;;;;;;6.40;3.10;;;;;;;12.23;50.58;100361.03;130392;1266;108665;-76
2022/05/20 01:48:17;;;;;;;5.40;3.20;;;;;;;12.23;50.33;100362.87;130427;1267;108721;-76
2022/05/20 01:51:27;;;;;;;3.80;3.00;;;;;;;12.20;50.25;100358.85;130427;1267;108930;-74
2022/05/20 01:54:41;;;;;;;4.90;3.20;;;;;;;12.19;50.65;100363.64;130450;1266;108695;-73
2022/05/20 01:57:54;;;;;;;6.00;3.00;;;;;;;12.17;50.64;100362.89;130427;1267;108628;-74
2022/05/20 02:01:03;;;;;;;7.20;3.60;;;;;;;12.15;50.59;100367.52;130419;1266;109691;-71
2022/05/20 02:04:16;;;;;;;6.30;2.80;;;;;;;12.15;50.41;100372.20;130429;1267;108854;-75
2022/05/20 02:07:26;;;;;;;4.50;3.00;;;;;;;12.15;50.17;100372.05;130437;1266;108823;-76
2022/05/20 02:10:35;;;;;;;4.40;2.90;;;;;;;12.16;50.46;100373.68;130334;1267;108739;-75
2022/05/20 02:13:46;;;;;;;4.30;2.60;;;;;;;12.17;50.21;100373.64;130514;1267;108180;-75
2022/05/20 02:16:56;;;;;;;3.90;2.60;;;;;;;12.21;50.41;100366.84;130487;1267;108693;-75
2022/05/20 02:20:07;;;;;;;5.00;2.30;;;;;;;12.25;50.34;100361.94;130419;1267;108706;-76
2022/05/20 02:23:18;;;;;;;4.10;2.60;;;;;;;12.28;50.28;100365.14;130376;1266;108822;-76
2022/05/20 02:26:27;;;;;;;6.20;2.80;;;;;;;12.31;50.44;100368.75;130518;1267;108827;-76
2022/05/20 02:29:37;;;;;;;6.20;2.80;;;;;;;12.34;50.31;100357.48;130608;1267;108730;-75
2022/05/20 02:32:48;;;;;;;5.70;2.80;;;;;;;12.37;50.39;100349.21;130383;1267;108967;-74
2022/05/20 02:36:00;;;;;;;4.10;2.20;;;;;;;12.38;50.37;100347.31;130498;1267;108733;-73
2022/05/20 02:39:15;;;;;;;4.10;2.30;;;;;;;12.40;50.59;100333.19;130383;1267;108678;-76
2022/05/20 02:42:20;;;;;;;4.40;2.40;;;;;;;12.41;50.55;100340.55;130401;1266;108788;-75
2022/05/20 02:45:26;;;;;;;5.10;2.50;;;;;;;12.42;50.35;100335.14;130543;1267;108700;-78
2022/05/20 02:48:31;;;;;;;3.60;2.30;;;;;;;12.44;50.53;100328.70;130313;1267;108791;-75
2022/05/20 02:51:37;;;;;;;6.90;2.60;;;;;;;12.46;50.33;100328.88;130442;1267;108929;-78
2022/05/20 02:54:42;;;;;;;5.80;2.30;;;;;;;12.48;50.43;100332.02;130468;1267;108879;-79
2022/05/20 02:57:48;;;;;;;7.70;2.30;;;;;;;12.50;50.42;100327.84;130521;1267;108747;-78
2022/05/20 03:04:17;;;;;;;6.60;2.10;;;;;;;12.56;50.32;100331.83;130450;1267;108894;-77
2022/05/20 03:07:22;;;;;;;3.50;2.10;;;;;;;12.62;50.23;100329.27;130405;1267;108995;-78
2022/05/20 03:10:28;;;;;;;4.30;2.70;;;;;;;12.68;50.31;100329.23;130425;1266;108649;-79
2022/05/20 03:13:34;;;;;;;5.10;2.20;;;;;;;12.73;50.29;100331.52;130352;1267;108594;-78
2022/05/20 03:16:40;;;;;;;5.70;2.40;;;;;;;12.75;50.22;100335.12;130387;1267;108813;-78
2022/05/20 03:19:46;;;;;;;6.00;2.30;;;;;;;12.81;50.22;100333.84;130386;1267;108739;-78
2022/05/20 03:22:52;;;;;;;4.10;2.20;;;;;;;12.83;50.53;100326.33;130375;1267;108702;-79
2022/05/20 03:25:58;;;;;;;4.40;2.20;;;;;;;12.85;50.42;100327.49;130354;1267;108895;-79
2022/05/20 03:29:05;;;;;;;7.70;2.30;;;;;;;12.88;50.62;100315.55;130390;1267;108708;-79
2022/05/20 03:32:12;;;;;;;4.20;2.00;;;;;;;12.92;50.78;100315.38;130359;1267;108856;-79
2022/05/20 03:35:18;;;;;;;3.60;2.10;;;;;;;12.98;50.88;100314.70;130339;1267;108996;-78
2022/05/20 03:38:23;;;;;;;5.60;2.10;;;;;;;13.07;50.72;100317.63;130345;1267;108746;-78
2022/05/20 03:41:29;;;;;;;6.50;2.50;;;;;;;13.17;50.86;100311.66;130361;1267;108642;-78
2022/05/20 03:44:36;;;;;;;6.00;2.20;;;;;;;13.33;50.87;100305.91;130376;1267;108757;-79
2022/05/20 03:47:41;;;;;;;3.20;1.80;;;;;;;13.48;50.70;100303.90;130208;1267;205015;-78
2022/05/20 03:50:47;;;;;;;4.20;1.90;;;;;;;13.66;50.60;100307.55;130363;1266;108745;-79
2022/05/20 03:53:52;;;;;;;3.70;1.80;;;;;;;13.86;50.61;100308.06;130366;1266;107009;-78
2022/05/20 03:56:58;;;;;;;3.00;1.80;;;;;;;14.10;50.70;100307.96;130419;1267;108921;-78
2022/05/20 04:00:04;;;;;;;4.50;1.90;;;;;;;14.41;50.61;100309.25;130327;1266;107763;-78
2022/05/20 04:03:18;;;;;;;4.50;2.20;;;;;;;14.66;50.60;100312.74;130394;1267;108822;-78
2022/05/20 04:06:23;;;;;;;4.00;2.10;;;;;;;14.84;50.47;100316.51;130327;1267;109002;-78
2022/05/20 04:09:29;;;;;;;3.40;1.90;;;;;;;14.96;50.54;100312.49;130435;1267;108746;-81
2022/05/20 04:12:37;;;;;;;7.70;1.70;;;;;;;15.05;50.67;100309.80;130270;1270;108755;-75
2022/05/20 04:15:43;;;;;;;7.30;2.90;;;;;;;15.13;50.31;100306.71;130310;1270;108853;-76
2022/05/20 04:18:48;;;;;;;7.20;2.90;;;;;;;15.26;50.48;100305.98;130359;1268;108772;-77
2022/05/20 04:21:55;;;;;;;4.50;1.80;;;;;;;15.50;50.25;100307.63;130327;1268;107304;-80
2022/05/20 04:25:01;;;;;;;3.90;1.90;;;;;;;15.80;50.23;100305.71;130274;1267;108736;-76
2022/05/20 04:28:07;;;;;;;6.30;2.10;;;;;;;16.09;50.03;100300.92;130278;1268;108714;-76
2022/05/20 04:31:14;;;;;;;5.10;1.90;;;;;;;16.37;49.84;100295.45;130163;1268;108718;-77
2022/05/20 04:34:20;;;;;;;6.00;2.40;;;;;;;16.65;49.51;100293.06;130326;1268;108728;-77
2022/05/20 04:37:25;;;;;;;3.60;1.50;;;;;;;16.86;49.32;100287.94;130300;1268;108837;-77
2022/05/20 04:40:31;;;;;;;5.10;2.00;;;;;;;17.10;49.17;100288.10;130224;1268;106919;-77
2022/05/20 04:47:01;;;;;;;3.90;1.90;;;;;;;17.56;48.83;100291.30;130212;1268;108825;-77
2022/05/20 04:50:09;;;;;;;4.70;1.80;;;;;;;17.80;48.35;100296.70;130241;1268;108811;-77
2022/05/20 04:54:49;;;;;;;2.10;1.50;;;;;;;18.05;48.11;100293.08;130186;1268;108686;-78
2022/05/20 04:56:39;;;;;;;5.30;1.70;;;;;;;18.36;48.21;100286.88;130173;1268;108862;-77
2022/05/20 04:59:45;;;;;;;4.40;1.90;;;;;;;18.61;47.51;100285.56;130247;1268;108977;-80
2022/05/20 05:02:52;;;;;;;5.60;1.70;;;;;;;18.78;47.62;100285.20;130128;1268;108789;-76
2022/05/20 05:05:59;;;;;;;2.70;1.80;;;;;;;18.96;47.39;100284.64;130307;1268;107150;-82
2022/05/20 05:09:05;;;;;;;4.00;1.70;;;;;;;19.03;47.18;100287.14;130130;1268;108727;-79
2022/05/20 05:12:13;;;;;;;3.60;1.80;;;;;;;19.03;47.17;100285.68;130155;1267;108972;-77
2022/05/20 05:15:20;;;;;;;4.60;1.70;;;;;;;19.03;47.07;100281.72;130298;1270;108770;-77
2022/05/20 05:18:27;;;;;;;3.40;1.80;;;;;;;18.98;46.78;100285.25;130250;1269;108944;-77
2022/05/20 05:21:33;;;;;;;3.60;1.80;;;;;;;18.93;46.79;100294.24;130281;1268;109027;-77
2022/05/20 05:24:39;;;;;;;4.40;1.90;;;;;;;18.89;46.81;100291.70;130206;1268;108965;-77
2022/05/20 05:27:46;;;;;;;5.00;1.80;;;;;;;18.88;46.61;100296.45;130209;1268;109071;-76
2022/05/20 05:30:53;;;;;;;2.30;1.80;;;;;;;18.93;46.82;100293.54;130331;1270;108571;-77
2022/05/20 05:33:58;;;;;;;2.70;1.70;;;;;;;19.13;46.61;100290.50;130298;1270;108724;-79
2022/05/20 05:37:04;;;;;;;3.40;1.70;;;;;;;19.47;46.28;100287.52;130207;1268;108742;-79
2022/05/20 05:40:14;;;;;;;4.90;1.90;;;;;;;19.78;46.34;100291.67;130242;1268;108985;-79
2022/05/20 05:43:19;;;;;;;4.10;1.90;;;;;;;19.99;46.01;100292.95;130227;1268;108882;-78
2022/05/20 05:46:25;;;;;;;3.20;1.90;;;;;;;20.08;46.06;100287.75;130210;1270;108713;-78
2022/05/20 05:49:30;;;;;;;6.40;2.00;;;;;;;20.14;45.86;100288.73;130211;1268;108636;-79
2022/05/20 05:52:36;;;;;;;21.30;4.40;;;;;;;20.19;45.85;100289.66;130228;1269;108638;-78
2022/05/20 05:55:43;;;;;;;5.80;2.30;;;;;;;20.26;45.86;100284.45;130176;1268;108765;-78
2022/05/20 05:58:49;;;;;;;3.90;1.90;;;;;;;20.38;45.81;100280.98;130305;1268;107936;-78
2022/05/20 06:01:59;;;;;;;4.70;2.10;;;;;;;20.51;45.61;100292.70;130189;1268;108662;-79
2022/05/20 06:05:05;;;;;;;7.50;1.80;;;;;;;20.61;45.44;100288.79;130206;1268;108806;-78
2022/05/20 06:08:11;;;;;;;4.10;1.90;;;;;;;20.69;45.58;100288.15;130314;1270;108551;-78
2022/05/20 06:11:16;;;;;;;3.30;1.80;;;;;;;20.78;45.63;100288.67;130319;1269;108774;-79
2022/05/20 06:14:22;;;;;;;3.40;1.90;;;;;;;20.89;45.61;100288.35;130182;1269;108718;-78
2022/05/20 06:17:30;;;;;;;5.30;2.10;;;;;;;21.00;45.46;100288.46;130218;1268;108644;-78
2022/05/20 06:20:35;;;;;;;2.70;1.90;;;;;;;21.12;45.44;100292.51;130142;1268;108802;-78
2022/05/20 06:23:41;;;;;;;3.30;2.10;;;;;;;21.27;45.28;100294.46;130184;1268;108787;-78
2022/05/20 06:26:47;;;;;;;5.30;2.20;;;;;;;21.40;45.25;100289.42;130298;1268;108824;-78
2022/05/20 06:29:54;;;;;;;5.70;2.10;;;;;;;21.55;45.10;100293.98;130312;1270;109128;-78
2022/05/20 06:32:59;;;;;;;4.90;2.10;;;;;;;21.65;44.65;100299.60;130209;1270;108740;-77
2022/05/20 06:42:51;;;;;;;7.20;2.50;;;;;;;21.91;44.54;100281.75;130193;1268;108656;-79
2022/05/20 06:46:00;;;;;;;4.00;2.20;;;;;;;22.06;44.64;100281.64;130199;1268;108661;-78
2022/05/20 06:49:06;;;;;;;6.60;2.50;;;;;;;22.17;44.37;100292.10;130189;1268;108808;-77
2022/05/20 06:52:11;;;;;;;4.00;2.10;;;;;;;22.20;44.45;100300.30;130238;1269;108795;-77
2022/05/20 06:55:17;;;;;;;5.30;2.40;;;;;;;22.24;44.12;100294.83;130372;1267;108894;-79
2022/05/20 06:58:22;;;;;;;4.40;2.20;;;;;;;22.27;44.03;100296.23;130502;1267;108959;-79
2022/05/20 07:01:29;;;;;;;5.10;2.30;;;;;;;22.28;43.54;100288.09;130359;1267;108820;-78
2022/05/20 07:04:35;;;;;;;3.60;2.40;;;;;;;22.21;43.71;100289.28;130342;1267;108920;-77
2022/05/20 07:07:41;;;;;;;4.60;2.40;;;;;;;22.22;43.89;100285.77;130280;1268;108809;-78
2022/05/20 07:10:47;;;;;;;4.00;2.30;;;;;;;22.25;43.75;100281.23;130344;1268;109495;-77
2022/05/20 07:13:56;;;;;;;3.20;2.60;;;;;;;22.30;43.77;100278.15;130338;1267;107651;-78
2022/05/20 07:17:02;;;;;;;4.10;2.50;;;;;;;22.34;43.55;100272.71;130354;1267;108745;-79
2022/05/20 07:20:10;;;;;;;3.40;2.40;;;;;;;22.35;43.47;100275.79;130386;1267;108719;-77
2022/05/20 07:23:16;;;;;;;7.10;2.60;;;;;;;22.29;43.27;100278.50;130368;1267;108689;-77
2022/05/20 07:26:21;;;;;;;7.70;2.60;;;;;;;22.20;43.68;100286.54;130373;1267;108649;-79
2022/05/20 07:29:27;;;;;;;5.80;2.50;;;;;;;22.09;43.44;100286.34;130356;1267;108774;-78
2022/05/20 07:32:33;;;;;;;4.50;2.70;;;;;;;21.88;43.07;100289.05;130336;1267;108644;-79
2022/05/20 07:35:39;;;;;;;7.20;2.60;;;;;;;21.67;43.42;100286.80;130350;1270;108679;-78
2022/05/20 07:38:44;;;;;;;9.00;2.90;;;;;;;21.54;43.59;100289.73;130379;1268;107711;-78
2022/05/20 07:41:51;;;;;;;6.40;2.80;;;;;;;21.39;43.41;100294.56;130325;1267;108674;-78
2022/05/20 07:44:57;;;;;;;4.30;3.10;;;;;;;21.26;43.69;100290.38;130371;1269;108767;-79
2022/05/20 07:48:03;;;;;;;6.90;3.20;;;;;;;21.19;43.26;100286.19;130409;1267;109240;-79
2022/05/20 07:51:12;;;;;;;14.10;4.00;;;;;;;21.05;43.39;100290.27;130399;1267;106930;-78
2022/05/20 07:54:23;;;;;;;4.40;2.90;;;;;;;21.01;43.61;100287.09;130325;1267;107624;-78
2022/05/20 07:57:29;;;;;;;5.00;2.90;;;;;;;21.18;43.88;100285.23;130349;1267;108581;-79
2022/05/20 08:00:36;;;;;;;7.60;3.10;;;;;;;21.38;43.60;100277.46;130266;1267;108897;-78
2022/05/20 08:07:06;;;;;;;8.20;3.40;;;;;;;21.85;43.43;100272.61;130322;1267;109103;-78
2022/05/20 08:10:14;;;;;;;4.70;3.00;;;;;;;22.00;43.46;100269.94;130409;1268;109167;-78
2022/05/20 08:13:21;;;;;;;10.10;3.80;;;;;;;22.19;42.98;100271.66;130456;1268;108811;-78
2022/05/20 08:16:27;;;;;;;5.90;3.10;;;;;;;22.32;42.99;100270.80;130413;1267;108617;-78
2022/05/20 08:19:33;;;;;;;4.30;3.40;;;;;;;22.35;43.13;100271.06;130419;1266;108973;-81
2022/05/20 08:22:38;;;;;;;5.40;3.30;;;;;;;22.40;42.94;100267.48;130388;1267;108677;-78
2022/05/20 08:25:44;;;;;;;7.10;3.60;;;;;;;22.43;43.14;100261.63;130412;1268;108778;-78
2022/05/20 08:28:50;;;;;;;5.40;3.30;;;;;;;22.52;43.30;100263.52;130224;1268;109154;-78
2022/05/20 08:31:55;;;;;;;3.20;2.90;;;;;;;22.64;42.96;100266.25;130296;1268;108707;-78
2022/05/20 08:35:03;;;;;;;5.10;3.20;;;;;;;22.68;42.96;100265.98;130325;1268;109010;-78
2022/05/20 08:38:08;;;;;;;5.70;3.60;;;;;;;22.63;43.28;100271.36;130304;1268;108685;-79
2022/05/20 08:41:20;;;;;;;6.50;3.50;;;;;;;22.63;43.35;100273.42;130222;1268;107163;-78
2022/05/20 08:44:25;;;;;;;5.50;3.10;;;;;;;22.71;43.48;100270.88;130255;1268;109173;-78
2022/05/20 08:47:38;;;;;;;8.50;3.70;;;;;;;22.83;43.68;100266.09;130389;1268;108782;-78
2022/05/20 08:50:49;;;;;;;6.40;3.50;;;;;;;22.95;43.35;100261.75;130343;1268;108713;-78
2022/05/20 08:53:54;;;;;;;3.60;3.10;;;;;;;23.02;43.75;100258.24;130374;1268;108806;-78
2022/05/20 08:57:10;;;;;;;5.70;3.20;;;;;;;23.09;43.19;100252.99;130401;1268;108837;-78
2022/05/20 09:00:17;;;;;;;4.20;3.10;;;;;;;23.19;43.43;100246.19;130392;1268;108687;-78
2022/05/20 09:03:23;;;;;;;4.40;3.00;;;;;;;23.26;43.47;100244.00;130342;1268;107192;-78
2022/05/20 09:06:29;;;;;;;4.90;3.50;;;;;;;23.38;43.85;100244.98;130395;1268;108716;-77
2022/05/20 09:09:46;;;;;;;6.10;3.70;;;;;;;23.50;43.72;100241.99;130391;1267;107672;-76
2022/05/20 09:13:07;;;;;;;4.90;3.20;;;;;;;23.61;43.83;100244.73;130351;1268;108779;-76
2022/05/20 09:16:17;;;;;;;4.70;2.90;;;;;;;23.71;44.17;100243.58;130336;1268;108788;-76
2022/05/20 09:19:29;;;;;;;4.40;3.00;;;;;;;23.87;44.07;100245.41;130304;1268;108774;-76
2022/05/20 09:22:37;;;;;;;3.80;3.10;;;;;;;23.91;44.14;100250.47;130358;1268;108840;-76
2022/05/20 09:25:57;;;;;;;6.70;2.80;;;;;;;23.98;44.38;100251.20;130305;1267;108839;-76
2022/05/20 09:29:11;;;;;;;6.60;3.20;;;;;;;24.18;43.95;100250.45;130342;1268;109024;-76
2022/05/20 09:32:28;;;;;;;3.80;2.60;;;;;;;24.34;43.97;100247.80;130289;1267;108722;-76
2022/05/20 09:35:35;;;;;;;3.70;2.70;;;;;;;24.46;43.62;100251.80;130315;1268;108777;-76
2022/05/20 09:38:43;;;;;;;5.70;2.70;;;;;;;24.58;43.97;100243.90;130299;1268;108784;-76
2022/05/20 09:41:52;;;;;;;5.50;2.90;;;;;;;24.69;43.43;100245.29;130351;1267;108810;-76
2022/05/20 09:44:59;;;;;;;4.50;2.70;;;;;;;24.80;43.18;100238.98;130388;1268;108689;-76
2022/05/20 09:48:05;;;;;;;4.70;2.90;;;;;;;24.97;43.68;100231.77;130341;1268;108655;-76
2022/05/20 09:51:16;;;;;;;5.00;2.90;;;;;;;25.21;43.26;100231.32;130372;1267;108659;-76
2022/05/20 09:54:29;;;;;;;3.60;2.50;;;;;;;25.33;42.80;100223.20;130373;1267;108938;-76
2022/05/20 09:57:41;;;;;;;6.40;2.50;;;;;;;25.25;42.60;100219.87;130151;1268;108935;-76
2022/05/20 10:00:53;;;;;;;6.30;2.80;;;;;;;25.07;41.77;100221.98;130169;1268;108689;-76
2022/05/20 10:04:03;;;;;;;6.70;1.80;;;;;;;25.05;42.03;100218.80;130093;1268;108711;-76
2022/05/20 10:07:13;;;;;;;5.30;2.00;;;;;;;25.10;41.46;100223.98;130162;1268;108713;-77
2022/05/20 10:10:25;;;;;;;3.60;2.00;;;;;;;25.11;41.71;100221.61;130114;1268;109562;-76
2022/05/20 10:13:38;;;;;;;;;;;;;;;25.17;41.70;100215.24;130173;1268;108732;-76
2022/05/20 10:16:51;;;;;;;5.10;2.10;;;;;;;25.19;41.52;100218.55;130094;1268;108428;-75
2022/05/20 10:20:03;;;;;;;3.70;1.90;;;;;;;25.18;41.40;100216.42;130299;1268;108765;-75
2022/05/20 10:23:16;;;;;;;2.70;2.00;;;;;;;25.25;41.30;100208.99;130351;1267;108752;-76
2022/05/20 10:26:35;;;;;;;2.90;2.10;;;;;;;25.36;41.96;100205.33;130350;1267;108862;-76
2022/05/20 10:33:16;;;;;;;7.30;2.40;;;;;;;25.60;41.25;100216.80;130361;1267;108882;-76
2022/05/20 10:36:31;;;;;;;3.10;1.90;;;;;;;25.59;41.06;100218.38;130528;1267;108843;-76
2022/05/20 10:40:07;;;;;;;2.40;2.20;;;;;;;25.57;41.32;100214.18;130317;1267;108829;-76
2022/05/20 10:50:34;;;;;;;5.30;2.60;;;;;;;25.50;41.44;100220.49;130312;1267;108768;-76
2022/05/20 10:53:51;;;;;;;3.70;2.40;;;;;;;25.44;41.50;100216.70;130383;1267;108807;-75
2022/05/20 10:57:25;;;;;;;3.00;2.50;;;;;;;25.46;41.64;100210.11;130382;1267;108999;-76
2022/05/20 11:00:43;;;;;;;3.60;2.10;;;;;;;25.50;42.07;100209.78;130468;1267;107637;-77
2022/05/20 11:04:05;;;;;;;3.30;2.40;;;;;;;25.63;42.28;100208.95;130388;1267;108664;-76
2022/05/20 11:07:34;;;;;;;;;;;;;;;25.69;41.98;100200.99;130542;1267;108878;-77
2022/05/20 11:11:03;;;;;;;5.90;2.30;;;;;;;25.80;42.17;100199.83;130427;1267;108654;-77
2022/05/20 11:14:25;;;;;;;2.50;2.30;;;;;;;25.96;41.89;100197.14;130417;1267;108852;-77
2022/05/20 11:18:04;;;;;;;3.90;1.70;;;;;;;26.16;41.31;100191.38;130463;1267;108699;-77
2022/05/20 11:21:24;;;;;;;5.00;2.40;;;;;;;26.46;40.85;100184.66;130405;1267;108550;-76
2022/05/20 11:25:02;;;;;;;3.60;1.90;;;;;;;26.63;40.09;100176.56;130394;1267;108701;-77
2022/05/20 11:28:27;;;;;;;3.00;1.90;;;;;;;26.70;39.68;100187.63;130269;1267;107795;-76
2022/05/20 11:31:48;;;;;;;8.00;2.00;;;;;;;26.84;39.32;100177.70;130564;1267;108758;-76
2022/05/20 11:35:17;;;;;;;5.50;2.30;;;;;;;26.97;38.98;100175.48;130548;1267;108750;-76
2022/05/20 11:38:41;;;;;;;5.30;2.00;;;;;;;27.15;39.89;100173.02;130443;1267;108861;-76
2022/05/20 11:41:59;;;;;;;3.10;1.90;;;;;;;27.33;38.84;100178.25;130324;1267;107888;-76
2022/05/20 11:45:16;;;;;;;2.80;1.70;;;;;;;27.18;38.67;100167.12;130260;1268;108745;-76
2022/05/20 11:48:48;;;;;;;4.50;1.80;;;;;;;27.03;39.25;100166.06;130376;1267;108834;-77
2022/05/20 11:52:06;;;;;;;3.70;1.80;;;;;;;26.97;38.31;100160.66;130357;1267;108873;-77
2022/05/20 11:55:18;;;;;;;4.10;1.90;;;;;;;26.89;38.33;100145.48;130293;1267;108856;-77
2022/05/20 11:58:26;;;;;;;;;;;;;;;26.87;38.01;100154.67;130361;1267;108852;-77
2022/05/20 12:01:33;;;;;;;3.10;1.70;;;;;;;26.88;38.64;100151.61;130310;1267;108715;-76
2022/05/20 12:04:40;;;;;;;5.30;1.80;;;;;;;26.93;37.77;100152.68;130457;1267;108767;-77
2022/05/20 12:07:45;;;;;;;3.30;1.90;;;;;;;26.90;37.24;100146.64;130398;1266;108711;-77
2022/05/20 12:10:51;;;;;;;1.70;1.60;;;;;;;26.94;38.39;100143.55;130364;1267;108789;-76
2022/05/20 12:14:09;;;;;;;7.90;1.90;;;;;;;27.01;37.99;100140.13;130310;1267;108942;-76
2022/05/20 12:17:28;;;;;;;4.40;1.60;;;;;;;26.97;37.91;100141.27;130360;1267;108824;-76
2022/05/20 12:24:14;;;;;;;3.00;1.50;;;;;;;26.98;37.11;100135.30;130289;1267;108676;-76
2022/05/20 12:27:41;;;;;;;4.30;1.50;;;;;;;26.98;37.31;100134.98;130309;1267;109173;-76
2022/05/20 12:31:03;;;;;;;5.00;1.80;;;;;;;26.96;37.35;100125.21;130368;1267;109479;-77
2022/05/20 12:34:11;;;;;;;2.60;1.40;;;;;;;26.93;36.93;100139.05;130184;1267;108909;-76
2022/05/20 12:38:01;;;;;;;4.00;1.70;;;;;;;26.93;36.81;100141.08;130213;1266;108640;-77
2022/05/20 12:41:20;;;;;;;4.50;1.90;;;;;;;26.92;36.28;100127.38;130366;1267;108794;-78
2022/05/20 12:44:37;;;;;;;3.20;1.40;;;;;;;26.85;35.46;100131.07;130362;1267;108625;-77
2022/05/20 12:47:42;;;;;;;4.20;1.80;;;;;;;26.82;35.41;100124.70;130514;1267;108944;-77
2022/05/20 12:51:00;;;;;;;3.60;1.90;;;;;;;26.87;35.72;100134.69;130378;1267;108657;-77
2022/05/20 12:54:14;;;;;;;7.70;1.90;;;;;;;26.81;35.47;100124.20;130453;1267;108960;-77
2022/05/20 12:57:22;;;;;;;3.10;1.40;;;;;;;26.81;35.58;100124.41;130343;1266;108988;-77
2022/05/20 13:00:30;;;;;;;3.00;1.90;;;;;;;26.87;35.52;100120.66;130445;1267;108896;-77
2022/05/20 13:03:38;;;;;;;3.60;1.60;;;;;;;26.88;34.71;100119.04;130368;1267;107690;-75
2022/05/20 13:06:48;;;;;;;5.80;2.00;;;;;;;26.81;35.43;100119.83;130415;1267;107426;-78
2022/05/20 13:09:54;;;;;;;9.60;2.20;;;;;;;26.72;34.79;100123.31;130348;1267;108795;-76
2022/05/20 13:13:04;;;;;;;5.20;2.00;;;;;;;26.74;35.03;100115.17;130474;1267;108738;-76
2022/05/20 13:16:13;;;;;;;4.10;2.10;;;;;;;26.72;34.04;100122.48;130450;1267;108765;-76
2022/05/20 13:19:29;;;;;;;4.00;1.60;;;;;;;26.70;33.67;100119.14;130489;1266;108543;-76
2022/05/20 13:22:49;;;;;;;6.40;1.50;;;;;;;26.75;32.96;100104.88;130392;1267;108968;-76
2022/05/20 13:25:54;;;;;;;4.40;1.60;;;;;;;26.81;32.68;100105.58;130364;1266;108790;-75
2022/05/20 13:29:09;;;;;;;22.10;2.80;;;;;;;26.87;32.11;100109.77;130459;1267;108800;-78
2022/05/20 13:32:20;;;;;;;6.70;1.80;;;;;;;26.95;32.63;100108.94;130394;1267;108757;-76
2022/05/20 13:35:26;;;;;;;5.70;1.60;;;;;;;26.98;31.65;100107.92;130418;1266;108767;-77
2022/05/20 13:38:34;;;;;;;3.70;1.60;;;;;;;26.89;31.16;100103.77;130506;1267;108827;-75
2022/05/20 13:41:41;;;;;;;3.70;1.60;;;;;;;26.82;31.62;100103.29;130474;1267;108801;-77
2022/05/20 13:44:47;;;;;;;5.10;1.60;;;;;;;26.81;32.30;100098.96;130526;1267;108802;-76
2022/05/20 13:51:16;;;;;;;1.90;1.40;;;;;;;26.73;31.53;100092.34;130368;1266;109075;-77
2022/05/20 13:54:26;;;;;;;4.60;1.60;;;;;;;26.70;32.25;100087.73;130402;1267;108694;-77
2022/05/20 13:57:36;;;;;;;2.80;1.30;;;;;;;26.70;31.36;100083.89;130379;1266;109220;-77
2022/05/20 14:00:46;;;;;;;2.00;1.70;;;;;;;26.74;31.62;100080.08;130464;1267;108686;-77
2022/05/20 14:03:51;;;;;;;3.70;1.70;;;;;;;26.71;31.53;100074.27;130429;1267;108689;-77
2022/05/20 14:07:02;;;;;;;5.40;2.30;;;;;;;26.74;31.92;100075.86;130390;1267;108835;-78
2022/05/20 14:10:15;;;;;;;5.70;2.00;;;;;;;26.64;31.76;100075.81;130316;1267;107714;-76
2022/05/20 14:13:28;;;;;;;2.20;1.40;;;;;;;26.54;31.54;100061.44;130341;1267;108771;-76
2022/05/20 14:16:40;;;;;;;6.50;2.40;;;;;;;26.53;31.18;100066.29;130427;1268;106819;-76
2022/05/20 14:19:49;;;;;;;4.80;1.80;;;;;;;26.48;31.35;100069.27;130360;1267;108750;-76
2022/05/20 14:22:55;;;;;;;5.20;1.50;;;;;;;26.46;31.31;100063.67;130346;1267;107535;-77
2022/05/20 14:26:04;;;;;;;3.40;1.70;;;;;;;26.46;31.35;100063.17;130322;1266;108711;-78
2022/05/20 14:29:17;;;;;;;3.40;1.50;;;;;;;26.48;31.58;100060.77;130392;1267;108704;-79
2022/05/20 14:32:24;;;;;;;4.10;1.60;;;;;;;26.46;31.77;100053.88;130427;1266;108813;-80
2022/05/20 14:35:35;;;;;;;2.90;1.60;;;;;;;26.46;31.23;100057.81;130524;1267;108904;-76
2022/05/20 14:38:44;;;;;;;4.20;1.80;;;;;;;26.40;31.45;100060.23;130469;1266;108861;-80
2022/05/20 14:42:02;;;;;;;2.90;1.80;;;;;;;26.38;31.21;100049.17;130523;1266;108635;-75
2022/05/20 14:45:13;;;;;;;4.10;1.80;;;;;;;26.36;31.27;100047.19;130435;1267;108790;-77
2022/05/20 14:48:21;;;;;;;;;;;;;;;26.35;31.39;100050.84;130464;1266;108778;-78
2022/05/20 14:51:29;;;;;;;4.10;1.80;;;;;;;26.35;31.34;100051.33;130235;1267;109206;-78
2022/05/20 14:54:41;;;;;;;6.80;1.60;;;;;;;26.31;30.94;100047.09;130406;1266;108788;-75
2022/05/20 14:58:02;;;;;;;2.50;1.50;;;;;;;26.26;30.73;100044.39;130619;1267;108746;-77